^^
TXWeather Station Historical Data
Daily Summary for April 22, 2022 Units:  English    Metric   Both
Daily Weekly Monthly Yearly Custom
  High: Low: Average:
Temperature: 86.0 °F 72.0 °F 77.3 °F
Dew Point: 72.0 °F 65.0 °F 68.1 °F
Humidity: 85% 57% 74%
Wind Speed: 19mph 3mph 11mph
Wind Gust: 20mph - -
Wind- - SE
Pressure: 30.2 in 30.1 in -
Precipitation: 0.000 in    
Historical Graphs
 
 
Tabular Data for April 22, 2022
Time Temperature Dew Point Pressure Wind Wind Speed Wind Gust Humidity Rainfall Rate (Hourly) solar
00:04 75.0 °F 69.0 °F 30.2 in SE 7 mph 10 mph 83% 0.000 in 0.00 W/m2
00:09 75.0 °F 69.0 °F 30.2 in SE 15 mph 15 mph 83% 0.000 in 0.00 W/m2
00:14 75.0 °F 69.0 °F 30.2 in SE 11 mph 11 mph 83% 0.000 in 0.00 W/m2
00:24 75.0 °F 69.0 °F 30.2 in SE 9 mph 9 mph 83% 0.000 in 0.00 W/m2
00:29 75.0 °F 69.0 °F 30.2 in SE 10 mph 11 mph 83% 0.000 in 0.00 W/m2
00:34 75.0 °F 69.0 °F 30.2 in SE 8 mph 9 mph 82% 0.000 in 0.00 W/m2
00:39 75.0 °F 69.0 °F 30.2 in SE 9 mph 9 mph 82% 0.000 in 0.00 W/m2
00:44 75.0 °F 69.0 °F 30.2 in SE 10 mph 10 mph 83% 0.000 in 0.00 W/m2
00:49 75.0 °F 69.0 °F 30.2 in SE 8 mph 9 mph 83% 0.000 in 0.00 W/m2
00:54 75.0 °F 69.0 °F 30.2 in SE 9 mph 9 mph 83% 0.000 in 0.00 W/m2
00:59 75.0 °F 69.0 °F 30.2 in SE 9 mph 9 mph 83% 0.000 in 0.00 W/m2
01:04 75.0 °F 69.0 °F 30.2 in SE 7 mph 7 mph 83% 0.000 in 0.00 W/m2
01:09 75.0 °F 69.0 °F 30.2 in SE 8 mph 9 mph 83% 0.000 in 0.00 W/m2
01:14 75.0 °F 69.0 °F 30.2 in SE 10 mph 10 mph 83% 0.000 in 0.00 W/m2
01:19 75.0 °F 69.0 °F 30.2 in SSE 9 mph 9 mph 83% 0.000 in 0.00 W/m2
01:24 75.0 °F 69.0 °F 30.2 in SE 8 mph 8 mph 83% 0.000 in 0.00 W/m2
01:29 75.0 °F 69.0 °F 30.2 in SE 7 mph 7 mph 83% 0.000 in 0.00 W/m2
01:34 75.0 °F 69.0 °F 30.2 in SE 8 mph 9 mph 83% 0.000 in 0.00 W/m2
01:39 74.0 °F 69.0 °F 30.2 in SE 8 mph 8 mph 83% 0.000 in 0.00 W/m2
01:44 74.0 °F 69.0 °F 30.2 in SE 11 mph 14 mph 83% 0.000 in 0.00 W/m2
01:49 74.0 °F 68.0 °F 30.2 in SSE 8 mph 14 mph 82% 0.000 in 0.00 W/m2
01:54 74.0 °F 68.0 °F 30.2 in SE 10 mph 11 mph 82% 0.000 in 0.00 W/m2
01:59 74.0 °F 68.0 °F 30.2 in SE 6 mph 8 mph 82% 0.000 in 0.00 W/m2
02:04 74.0 °F 68.0 °F 30.2 in SE 11 mph 11 mph 82% 0.000 in 0.00 W/m2
02:09 74.0 °F 68.0 °F 30.2 in SE 8 mph 11 mph 82% 0.000 in 0.00 W/m2
02:14 74.0 °F 68.0 °F 30.2 in SE 12 mph 13 mph 82% 0.000 in 0.00 W/m2
02:19 74.0 °F 68.0 °F 30.2 in SE 11 mph 13 mph 82% 0.000 in 0.00 W/m2
02:24 74.0 °F 68.0 °F 30.2 in SE 9 mph 10 mph 82% 0.000 in 0.00 W/m2
02:29 74.0 °F 68.0 °F 30.2 in SE 9 mph 12 mph 82% 0.000 in 0.00 W/m2
02:34 74.0 °F 68.0 °F 30.2 in SE 9 mph 11 mph 82% 0.000 in 0.00 W/m2
02:39 74.0 °F 68.0 °F 30.2 in SE 8 mph 10 mph 82% 0.000 in 0.00 W/m2
02:44 74.0 °F 68.0 °F 30.2 in SE 9 mph 10 mph 82% 0.000 in 0.00 W/m2
02:49 74.0 °F 68.0 °F 30.2 in SSE 7 mph 8 mph 82% 0.000 in 0.00 W/m2
02:54 73.0 °F 68.0 °F 30.2 in SE 9 mph 10 mph 82% 0.000 in 0.00 W/m2
02:59 73.0 °F 68.0 °F 30.2 in SSE 8 mph 9 mph 82% 0.000 in 0.00 W/m2
03:04 73.0 °F 68.0 °F 30.2 in SE 8 mph 9 mph 82% 0.000 in 0.00 W/m2
03:09 73.0 °F 67.0 °F 30.2 in SE 7 mph 7 mph 82% 0.000 in 0.00 W/m2
03:14 73.0 °F 67.0 °F 30.2 in SSE 6 mph 8 mph 82% 0.000 in 0.00 W/m2
03:19 73.0 °F 67.0 °F 30.2 in SSE 7 mph 8 mph 82% 0.000 in 0.00 W/m2
03:24 73.0 °F 67.0 °F 30.2 in SSE 7 mph 8 mph 82% 0.000 in 0.00 W/m2
03:29 73.0 °F 67.0 °F 30.2 in SSE 5 mph 5 mph 82% 0.000 in 0.00 W/m2
03:34 73.0 °F 67.0 °F 30.2 in SSE 3 mph 5 mph 82% 0.000 in 0.00 W/m2
03:39 73.0 °F 67.0 °F 30.2 in SSE 4 mph 4 mph 82% 0.000 in 0.00 W/m2
03:44 73.0 °F 68.0 °F 30.2 in SSE 4 mph 6 mph 83% 0.000 in 0.00 W/m2
03:49 73.0 °F 68.0 °F 30.2 in SE 7 mph 8 mph 83% 0.000 in 0.00 W/m2
03:54 73.0 °F 68.0 °F 30.2 in SSE 5 mph 8 mph 83% 0.000 in 0.00 W/m2
03:59 73.0 °F 68.0 °F 30.2 in SE 5 mph 5 mph 83% 0.000 in 0.00 W/m2
04:04 73.0 °F 68.0 °F 30.2 in SE 5 mph 7 mph 83% 0.000 in 0.00 W/m2
04:09 73.0 °F 68.0 °F 30.2 in SE 7 mph 7 mph 83% 0.000 in 0.00 W/m2
04:14 73.0 °F 68.0 °F 30.2 in SE 8 mph 8 mph 83% 0.000 in 0.00 W/m2
04:19 73.0 °F 68.0 °F 30.2 in SE 5 mph 7 mph 83% 0.000 in 0.00 W/m2
04:24 73.0 °F 68.0 °F 30.2 in SE 9 mph 11 mph 83% 0.000 in 0.00 W/m2
04:29 73.0 °F 67.0 °F 30.2 in SE 8 mph 9 mph 83% 0.000 in 0.00 W/m2
04:34 73.0 °F 67.0 °F 30.2 in SE 8 mph 8 mph 83% 0.000 in 0.00 W/m2
04:39 73.0 °F 68.0 °F 30.2 in SE 8 mph 10 mph 84% 0.000 in 0.00 W/m2
04:44 73.0 °F 68.0 °F 30.2 in SE 9 mph 10 mph 84% 0.000 in 0.00 W/m2
04:49 73.0 °F 68.0 °F 30.2 in SE 8 mph 8 mph 84% 0.000 in 0.00 W/m2
04:54 73.0 °F 68.0 °F 30.2 in SE 6 mph 8 mph 84% 0.000 in 0.00 W/m2
04:59 73.0 °F 68.0 °F 30.2 in SE 11 mph 11 mph 84% 0.000 in 0.00 W/m2
05:04 73.0 °F 68.0 °F 30.2 in SE 5 mph 7 mph 84% 0.000 in 0.00 W/m2
05:09 73.0 °F 68.0 °F 30.2 in SE 8 mph 8 mph 84% 0.000 in 0.00 W/m2
05:14 72.0 °F 67.0 °F 30.2 in SE 8 mph 8 mph 84% 0.000 in 0.00 W/m2
05:19 73.0 °F 68.0 °F 30.2 in SE 9 mph 11 mph 84% 0.000 in 0.00 W/m2
05:24 72.0 °F 67.0 °F 30.2 in SE 9 mph 9 mph 84% 0.000 in 0.00 W/m2
05:29 72.0 °F 68.0 °F 30.2 in SE 7 mph 8 mph 85% 0.000 in 0.00 W/m2
05:34 72.0 °F 68.0 °F 30.2 in SE 7 mph 9 mph 85% 0.000 in 0.00 W/m2
05:39 72.0 °F 68.0 °F 30.2 in SE 8 mph 9 mph 85% 0.000 in 0.00 W/m2
05:44 72.0 °F 68.0 °F 30.2 in SE 8 mph 8 mph 85% 0.000 in 0.00 W/m2
05:49 72.0 °F 68.0 °F 30.2 in SE 7 mph 7 mph 85% 0.000 in 0.00 W/m2
05:54 72.0 °F 68.0 °F 30.2 in SE 6 mph 8 mph 85% 0.000 in 0.00 W/m2
05:59 72.0 °F 68.0 °F 30.2 in SE 10 mph 10 mph 85% 0.000 in 0.00 W/m2
06:04 72.0 °F 68.0 °F 30.2 in SE 8 mph 8 mph 85% 0.000 in 0.00 W/m2
06:09 72.0 °F 68.0 °F 30.2 in SE 6 mph 8 mph 85% 0.000 in 0.00 W/m2
06:14 72.0 °F 68.0 °F 30.2 in SSE 6 mph 6 mph 85% 0.000 in 0.00 W/m2
06:19 72.0 °F 68.0 °F 30.2 in SE 9 mph 9 mph 85% 0.000 in 0.00 W/m2
06:24 72.0 °F 68.0 °F 30.2 in SE 8 mph 9 mph 85% 0.000 in 0.00 W/m2
06:29 72.0 °F 68.0 °F 30.2 in SE 8 mph 8 mph 85% 0.000 in 0.00 W/m2
06:34 73.0 °F 68.0 °F 30.2 in SE 4 mph 5 mph 85% 0.000 in 0.00 W/m2
06:39 73.0 °F 68.0 °F 30.2 in SE 4 mph 5 mph 85% 0.000 in 0.00 W/m2
06:44 73.0 °F 68.0 °F 30.2 in SE 9 mph 10 mph 85% 0.000 in 0.00 W/m2
06:49 73.0 °F 68.0 °F 30.2 in SE 6 mph 7 mph 85% 0.000 in 0.00 W/m2
06:54 73.0 °F 68.0 °F 30.2 in SE 10 mph 10 mph 85% 0.000 in 5.00 W/m2
06:59 73.0 °F 68.0 °F 30.2 in SE 7 mph 9 mph 85% 0.000 in 5.00 W/m2
07:04 73.0 °F 68.0 °F 30.2 in SE 8 mph 9 mph 85% 0.000 in 9.00 W/m2
07:09 73.0 °F 68.0 °F 30.2 in SE 8 mph 10 mph 85% 0.000 in 12.00 W/m2
07:14 73.0 °F 68.0 °F 30.2 in SE 8 mph 10 mph 85% 0.000 in 14.00 W/m2
07:19 73.0 °F 68.0 °F 30.2 in SE 5 mph 6 mph 84% 0.000 in 14.00 W/m2
07:24 73.0 °F 68.0 °F 30.2 in SE 7 mph 7 mph 84% 0.000 in 23.00 W/m2
07:29 73.0 °F 68.0 °F 30.2 in SE 8 mph 8 mph 84% 0.000 in 32.00 W/m2
07:34 73.0 °F 68.0 °F 30.2 in SE 8 mph 8 mph 84% 0.000 in 39.00 W/m2
07:39 73.0 °F 68.0 °F 30.2 in SE 8 mph 11 mph 84% 0.000 in 40.00 W/m2
07:44 73.0 °F 68.0 °F 30.2 in SE 9 mph 10 mph 84% 0.000 in 63.00 W/m2
07:49 73.0 °F 68.0 °F 30.2 in SE 9 mph 10 mph 84% 0.000 in 70.00 W/m2
07:54 73.0 °F 68.0 °F 30.2 in SE 13 mph 14 mph 84% 0.000 in 60.00 W/m2
07:59 73.0 °F 68.0 °F 30.2 in SSE 12 mph 12 mph 84% 0.000 in 60.00 W/m2
08:04 74.0 °F 68.0 °F 30.2 in SSE 8 mph 10 mph 83% 0.000 in 69.00 W/m2
08:09 74.0 °F 68.0 °F 30.2 in SE 10 mph 10 mph 83% 0.000 in 54.00 W/m2
08:14 74.0 °F 68.0 °F 30.2 in SE 8 mph 9 mph 83% 0.000 in 58.00 W/m2
08:19 74.0 °F 68.0 °F 30.2 in SE 10 mph 12 mph 83% 0.000 in 63.00 W/m2
08:24 74.0 °F 68.0 °F 30.2 in SE 13 mph 15 mph 83% 0.000 in 63.00 W/m2
08:29 74.0 °F 68.0 °F 30.2 in SSE 9 mph 10 mph 83% 0.000 in 76.00 W/m2
08:34 74.0 °F 69.0 °F 30.2 in SE 11 mph 13 mph 83% 0.000 in 79.00 W/m2
08:39 74.0 °F 68.0 °F 30.2 in SE 12 mph 14 mph 82% 0.000 in 98.00 W/m2
08:44 75.0 °F 69.0 °F 30.2 in SE 13 mph 13 mph 82% 0.000 in 158.00 W/m2
08:49 75.0 °F 68.0 °F 30.2 in SE 13 mph 16 mph 81% 0.000 in 255.00 W/m2
08:54 75.0 °F 69.0 °F 30.2 in SE 11 mph 13 mph 81% 0.000 in 285.00 W/m2
08:59 75.0 °F 69.0 °F 30.2 in SE 14 mph 14 mph 81% 0.000 in 295.00 W/m2
09:04 76.0 °F 69.0 °F 30.2 in SE 17 mph 17 mph 80% 0.000 in 315.00 W/m2
09:09 76.0 °F 69.0 °F 30.2 in SE 15 mph 17 mph 79% 0.000 in 360.00 W/m2
09:14 77.0 °F 69.0 °F 30.2 in SE 14 mph 15 mph 78% 0.000 in 360.00 W/m2
09:19 77.0 °F 69.0 °F 30.2 in SE 15 mph 17 mph 77% 0.000 in 142.00 W/m2
09:24 77.0 °F 69.0 °F 30.2 in SE 12 mph 12 mph 76% 0.000 in 374.00 W/m2
09:29 77.0 °F 69.0 °F 30.2 in SSE 11 mph 17 mph 76% 0.000 in 424.00 W/m2
09:34 77.0 °F 69.0 °F 30.2 in SE 12 mph 17 mph 76% 0.000 in 438.00 W/m2
09:39 78.0 °F 69.0 °F 30.2 in SE 14 mph 17 mph 75% 0.000 in 464.00 W/m2
09:44 78.0 °F 69.0 °F 30.2 in SE 14 mph 15 mph 73% 0.000 in 515.00 W/m2
09:49 78.0 °F 69.0 °F 30.2 in SE 14 mph 17 mph 73% 0.000 in 561.00 W/m2
09:54 79.0 °F 69.0 °F 30.2 in SE 12 mph 17 mph 71% 0.000 in 584.00 W/m2
09:59 79.0 °F 69.0 °F 30.2 in SE 17 mph 17 mph 71% 0.000 in 612.00 W/m2
10:04 80.0 °F 69.0 °F 30.2 in SSE 11 mph 17 mph 70% 0.000 in 643.00 W/m2
10:09 80.0 °F 69.0 °F 30.2 in SE 11 mph 16 mph 70% 0.000 in 657.00 W/m2
10:14 80.0 °F 69.0 °F 30.2 in SE 15 mph 16 mph 69% 0.000 in 712.00 W/m2
10:19 81.0 °F 69.0 °F 30.2 in SE 15 mph 15 mph 68% 0.000 in 793.00 W/m2
10:24 81.0 °F 69.0 °F 30.2 in SE 13 mph 17 mph 67% 0.000 in 800.00 W/m2
10:29 81.0 °F 69.0 °F 30.2 in SE 12 mph 15 mph 66% 0.000 in 772.00 W/m2
10:34 81.0 °F 69.0 °F 30.2 in SE 9 mph 16 mph 66% 0.000 in 817.00 W/m2
10:39 82.0 °F 69.0 °F 30.2 in SE 14 mph 14 mph 66% 0.000 in 819.00 W/m2
10:44 82.0 °F 69.0 °F 30.2 in SSE 16 mph 16 mph 65% 0.000 in 860.00 W/m2
10:49 82.0 °F 69.0 °F 30.2 in SSE 10 mph 16 mph 65% 0.000 in 860.00 W/m2
10:54 82.0 °F 68.0 °F 30.2 in SSE 14 mph 15 mph 64% 0.000 in 156.00 W/m2
10:59 82.0 °F 68.0 °F 30.2 in SSE 13 mph 15 mph 64% 0.000 in 156.00 W/m2
11:04 82.0 °F 68.0 °F 30.2 in SSE 12 mph 13 mph 64% 0.000 in 167.00 W/m2
11:09 81.0 °F 68.0 °F 30.2 in SE 13 mph 15 mph 64% 0.000 in 849.00 W/m2
11:14 82.0 °F 68.0 °F 30.2 in SSE 14 mph 15 mph 63% 0.000 in 849.00 W/m2
11:19 82.0 °F 68.0 °F 30.2 in SE 12 mph 15 mph 64% 0.000 in 870.00 W/m2
11:24 82.0 °F 68.0 °F 30.2 in SE 12 mph 14 mph 63% 0.000 in 860.00 W/m2
11:29 82.0 °F 68.0 °F 30.2 in SE 14 mph 15 mph 62% 0.000 in 923.00 W/m2
11:34 82.0 °F 68.0 °F 30.2 in SE 12 mph 14 mph 62% 0.000 in 923.00 W/m2
11:39 83.0 °F 68.0 °F 30.2 in SE 12 mph 12 mph 61% 0.000 in 997.00 W/m2
11:44 83.0 °F 68.0 °F 30.2 in SE 17 mph 18 mph 61% 0.000 in 1002.00 W/m2
11:49 84.0 °F 68.0 °F 30.2 in SE 11 mph 18 mph 60% 0.000 in 991.00 W/m2
11:54 84.0 °F 68.0 °F 30.2 in SE 13 mph 17 mph 60% 0.000 in 1002.00 W/m2
11:59 84.0 °F 68.0 °F 30.2 in SE 14 mph 15 mph 59% 0.000 in 1020.00 W/m2
12:04 84.0 °F 68.0 °F 30.2 in SE 19 mph 19 mph 58% 0.000 in 1060.00 W/m2
12:09 84.0 °F 68.0 °F 30.2 in SE 12 mph 19 mph 57% 0.000 in 1051.00 W/m2
12:14 84.0 °F 68.0 °F 30.2 in SE 14 mph 14 mph 58% 0.000 in 1035.00 W/m2
12:19 84.0 °F 68.0 °F 30.2 in SE 16 mph 16 mph 59% 0.000 in 1035.00 W/m2
12:24 84.0 °F 68.0 °F 30.2 in ESE 13 mph 16 mph 60% 0.000 in 411.00 W/m2
12:29 84.0 °F 68.0 °F 30.2 in SE 14 mph 14 mph 60% 0.000 in 355.00 W/m2
12:34 83.0 °F 68.0 °F 30.2 in SSE 19 mph 19 mph 60% 0.000 in 374.00 W/m2
12:39 83.0 °F 68.0 °F 30.2 in SE 14 mph 14 mph 61% 0.000 in 392.00 W/m2
12:44 84.0 °F 69.0 °F 30.2 in SE 16 mph 17 mph 62% 0.000 in 1023.00 W/m2
12:49 84.0 °F 69.0 °F 30.2 in SE 12 mph 13 mph 60% 0.000 in 1063.00 W/m2
12:54 84.0 °F 69.0 °F 30.2 in SE 13 mph 14 mph 61% 0.000 in 1102.00 W/m2
12:59 84.0 °F 69.0 °F 30.2 in SE 14 mph 16 mph 61% 0.000 in 1102.00 W/m2
13:04 84.0 °F 69.0 °F 30.2 in SSE 12 mph 16 mph 61% 0.000 in 260.00 W/m2
13:09 84.0 °F 70.0 °F 30.2 in SSE 14 mph 16 mph 62% 0.000 in 341.00 W/m2
13:14 84.0 °F 70.0 °F 30.2 in SE 16 mph 16 mph 63% 0.000 in 1034.00 W/m2
13:19 84.0 °F 71.0 °F 30.2 in SE 18 mph 18 mph 64% 0.000 in 1085.00 W/m2
13:24 85.0 °F 71.0 °F 30.2 in SE 16 mph 16 mph 65% 0.000 in 998.00 W/m2
13:29 85.0 °F 71.0 °F 30.2 in SE 12 mph 13 mph 64% 0.000 in 1051.00 W/m2
13:34 85.0 °F 71.0 °F 30.2 in SE 11 mph 13 mph 64% 0.000 in 1121.00 W/m2
13:39 86.0 °F 72.0 °F 30.2 in SE 14 mph 14 mph 64% 0.000 in 1014.00 W/m2
13:44 86.0 °F 71.0 °F 30.2 in SE 13 mph 14 mph 63% 0.000 in 1013.00 W/m2
13:49 85.0 °F 71.0 °F 30.2 in SE 18 mph 19 mph 63% 0.000 in 1056.00 W/m2
13:54 85.0 °F 71.0 °F 30.2 in SE 11 mph 11 mph 63% 0.000 in 1069.00 W/m2
13:59 84.0 °F 71.0 °F 30.2 in SE 17 mph 17 mph 64% 0.000 in 1148.00 W/m2
14:04 84.0 °F 71.0 °F 30.2 in SE 15 mph 20 mph 64% 0.000 in 322.00 W/m2
14:09 85.0 °F 72.0 °F 30.2 in ESE 9 mph 15 mph 66% 0.000 in 1062.00 W/m2
14:14 85.0 °F 71.0 °F 30.2 in ESE 13 mph 15 mph 64% 0.000 in 1097.00 W/m2
14:19 85.0 °F 71.0 °F 30.2 in SE 16 mph 16 mph 65% 0.000 in 1032.00 W/m2
14:24 85.0 °F 72.0 °F 30.2 in SE 13 mph 13 mph 66% 0.000 in 1041.00 W/m2
14:29 85.0 °F 71.0 °F 30.2 in SE 15 mph 15 mph 64% 0.000 in 288.00 W/m2
14:34 84.0 °F 71.0 °F 30.2 in SE 17 mph 17 mph 65% 0.000 in 1048.00 W/m2
14:39 84.0 °F 71.0 °F 30.2 in SE 15 mph 18 mph 64% 0.000 in 1016.00 W/m2
14:44 84.0 °F 71.0 °F 30.2 in SE 16 mph 18 mph 65% 0.000 in 923.00 W/m2
14:49 84.0 °F 70.0 °F 30.2 in SE 14 mph 14 mph 64% 0.000 in 916.00 W/m2
14:54 84.0 °F 71.0 °F 30.2 in SE 14 mph 16 mph 65% 0.000 in 1055.00 W/m2
14:59 84.0 °F 71.0 °F 30.2 in SE 14 mph 15 mph 66% 0.000 in 278.00 W/m2
15:04 83.0 °F 70.0 °F 30.2 in SE 12 mph 20 mph 66% 0.000 in 359.00 W/m2
15:09 83.0 °F 70.0 °F 30.2 in SE 14 mph 20 mph 66% 0.000 in 359.00 W/m2
15:14 83.0 °F 70.0 °F 30.2 in SE 12 mph 16 mph 66% 0.000 in 311.00 W/m2
15:19 83.0 °F 70.0 °F 30.2 in SE 15 mph 17 mph 66% 0.000 in 942.00 W/m2
15:24 83.0 °F 70.0 °F 30.2 in SE 16 mph 16 mph 65% 0.000 in 343.00 W/m2
15:29 83.0 °F 70.0 °F 30.2 in SE 15 mph 16 mph 65% 0.000 in 898.00 W/m2
15:34 83.0 °F 70.0 °F 30.2 in SE 14 mph 17 mph 66% 0.000 in 954.00 W/m2
15:39 83.0 °F 70.0 °F 30.2 in SE 13 mph 16 mph 65% 0.000 in 954.00 W/m2
15:44 83.0 °F 70.0 °F 30.2 in ESE 13 mph 17 mph 65% 0.000 in 251.00 W/m2
15:49 83.0 °F 70.0 °F 30.2 in SE 10 mph 12 mph 65% 0.000 in 844.00 W/m2
15:54 83.0 °F 70.0 °F 30.2 in SE 13 mph 14 mph 65% 0.000 in 844.00 W/m2
15:59 83.0 °F 69.0 °F 30.1 in SE 11 mph 12 mph 64% 0.000 in 294.00 W/m2
16:04 83.0 °F 70.0 °F 30.1 in SE 12 mph 13 mph 65% 0.000 in 782.00 W/m2
16:09 83.0 °F 70.0 °F 30.1 in SE 11 mph 16 mph 64% 0.000 in 700.00 W/m2
16:14 83.0 °F 69.0 °F 30.1 in SE 13 mph 16 mph 64% 0.000 in 401.00 W/m2
16:19 84.0 °F 70.0 °F 30.1 in SE 13 mph 16 mph 64% 0.000 in 819.00 W/m2
16:24 84.0 °F 70.0 °F 30.1 in SE 14 mph 14 mph 64% 0.000 in 819.00 W/m2
16:29 84.0 °F 70.0 °F 30.1 in SE 12 mph 13 mph 64% 0.000 in 780.00 W/m2
16:34 84.0 °F 70.0 °F 30.1 in ESE 10 mph 13 mph 63% 0.000 in 721.00 W/m2
16:39 84.0 °F 70.0 °F 30.1 in SE 13 mph 15 mph 63% 0.000 in 729.00 W/m2
16:44 83.0 °F 69.0 °F 30.1 in SE 13 mph 13 mph 63% 0.000 in 657.00 W/m2
16:49 83.0 °F 69.0 °F 30.1 in SE 14 mph 16 mph 63% 0.000 in 582.00 W/m2
16:54 83.0 °F 69.0 °F 30.1 in ESE 12 mph 16 mph 64% 0.000 in 686.00 W/m2
16:59 83.0 °F 70.0 °F 30.1 in ESE 17 mph 17 mph 65% 0.000 in 666.00 W/m2
17:04 83.0 °F 70.0 °F 30.1 in SE 19 mph 19 mph 65% 0.000 in 657.00 W/m2
17:09 83.0 °F 70.0 °F 30.1 in ESE 13 mph 15 mph 64% 0.000 in 626.00 W/m2
17:14 83.0 °F 70.0 °F 30.1 in ESE 13 mph 18 mph 64% 0.000 in 552.00 W/m2
17:19 83.0 °F 69.0 °F 30.1 in SE 18 mph 18 mph 64% 0.000 in 552.00 W/m2
17:24 83.0 °F 69.0 °F 30.1 in SE 12 mph 13 mph 64% 0.000 in 462.00 W/m2
17:29 82.0 °F 69.0 °F 30.1 in SE 16 mph 16 mph 65% 0.000 in 473.00 W/m2
17:34 82.0 °F 69.0 °F 30.1 in SE 17 mph 17 mph 65% 0.000 in 504.00 W/m2
17:39 82.0 °F 69.0 °F 30.1 in SE 12 mph 17 mph 64% 0.000 in 401.00 W/m2
17:44 82.0 °F 69.0 °F 30.1 in SE 12 mph 12 mph 65% 0.000 in 394.00 W/m2
17:49 82.0 °F 69.0 °F 30.1 in SSE 15 mph 16 mph 65% 0.000 in 403.00 W/m2
17:54 82.0 °F 69.0 °F 30.1 in ESE 13 mph 19 mph 65% 0.000 in 411.00 W/m2
17:59 82.0 °F 69.0 °F 30.1 in SE 12 mph 13 mph 65% 0.000 in 366.00 W/m2
18:04 82.0 °F 68.0 °F 30.1 in SE 12 mph 13 mph 64% 0.000 in 302.00 W/m2
18:09 81.0 °F 68.0 °F 30.1 in SE 14 mph 14 mph 64% 0.000 in 188.00 W/m2
18:14 81.0 °F 68.0 °F 30.1 in SE 10 mph 13 mph 65% 0.000 in 315.00 W/m2
18:19 80.0 °F 68.0 °F 30.1 in SE 12 mph 13 mph 66% 0.000 in 336.00 W/m2
18:24 81.0 °F 68.0 °F 30.1 in SE 14 mph 15 mph 66% 0.000 in 267.00 W/m2
18:29 81.0 °F 68.0 °F 30.1 in SE 9 mph 15 mph 65% 0.000 in 265.00 W/m2
18:34 80.0 °F 68.0 °F 30.1 in SE 10 mph 13 mph 65% 0.000 in 232.00 W/m2
18:39 80.0 °F 68.0 °F 30.1 in SE 8 mph 11 mph 65% 0.000 in 207.00 W/m2
18:44 80.0 °F 68.0 °F 30.1 in SE 10 mph 12 mph 65% 0.000 in 171.00 W/m2
18:49 80.0 °F 67.0 °F 30.1 in SE 12 mph 14 mph 65% 0.000 in 200.00 W/m2
18:54 80.0 °F 68.0 °F 30.1 in SE 12 mph 15 mph 66% 0.000 in 148.00 W/m2
18:59 80.0 °F 68.0 °F 30.1 in SE 13 mph 20 mph 67% 0.000 in 54.00 W/m2
19:04 79.0 °F 67.0 °F 30.1 in SE 15 mph 20 mph 67% 0.000 in 53.00 W/m2
19:09 79.0 °F 67.0 °F 30.1 in SE 12 mph 15 mph 68% 0.000 in 46.00 W/m2
19:14 78.0 °F 67.0 °F 30.1 in SE 11 mph 11 mph 69% 0.000 in 39.00 W/m2
19:19 78.0 °F 67.0 °F 30.1 in SE 11 mph 14 mph 69% 0.000 in 33.00 W/m2
19:24 78.0 °F 67.0 °F 30.1 in SE 13 mph 14 mph 69% 0.000 in 28.00 W/m2
19:29 77.0 °F 66.0 °F 30.1 in SE 9 mph 13 mph 69% 0.000 in 23.00 W/m2
19:34 77.0 °F 66.0 °F 30.1 in SE 9 mph 10 mph 70% 0.000 in 19.00 W/m2
19:39 77.0 °F 66.0 °F 30.1 in SE 10 mph 12 mph 70% 0.000 in 14.00 W/m2
19:44 77.0 °F 66.0 °F 30.1 in SE 8 mph 11 mph 70% 0.000 in 11.00 W/m2
19:49 76.0 °F 66.0 °F 30.1 in SE 8 mph 9 mph 71% 0.000 in 7.00 W/m2
19:54 76.0 °F 66.0 °F 30.1 in SE 13 mph 13 mph 71% 0.000 in 0.00 W/m2
19:59 76.0 °F 66.0 °F 30.1 in SE 9 mph 13 mph 71% 0.000 in 0.00 W/m2
20:04 76.0 °F 66.0 °F 30.1 in SE 11 mph 11 mph 72% 0.000 in 0.00 W/m2
20:09 75.0 °F 66.0 °F 30.1 in SE 9 mph 10 mph 72% 0.000 in 0.00 W/m2
20:14 75.0 °F 65.0 °F 30.1 in SE 8 mph 9 mph 72% 0.000 in 0.00 W/m2
20:19 75.0 °F 65.0 °F 30.1 in ESE 11 mph 12 mph 72% 0.000 in 0.00 W/m2
20:24 75.0 °F 65.0 °F 30.1 in SE 8 mph 10 mph 73% 0.000 in 0.00 W/m2
20:29 75.0 °F 65.0 °F 30.1 in SE 9 mph 12 mph 73% 0.000 in 0.00 W/m2
20:34 74.0 °F 65.0 °F 30.1 in SE 11 mph 12 mph 73% 0.000 in 0.00 W/m2
20:39 74.0 °F 65.0 °F 30.1 in SSE 8 mph 12 mph 73% 0.000 in 0.00 W/m2
20:44 74.0 °F 65.0 °F 30.1 in SE 11 mph 12 mph 73% 0.000 in 0.00 W/m2
20:49 74.0 °F 65.0 °F 30.1 in SE 11 mph 14 mph 74% 0.000 in 0.00 W/m2
20:54 74.0 °F 65.0 °F 30.1 in SE 12 mph 12 mph 74% 0.000 in 0.00 W/m2
20:59 74.0 °F 65.0 °F 30.1 in SE 13 mph 13 mph 74% 0.000 in 0.00 W/m2
21:04 74.0 °F 65.0 °F 30.1 in SE 12 mph 13 mph 75% 0.000 in 0.00 W/m2
21:09 74.0 °F 65.0 °F 30.1 in SE 13 mph 13 mph 75% 0.000 in 0.00 W/m2
21:14 73.0 °F 65.0 °F 30.1 in SE 14 mph 14 mph 75% 0.000 in 0.00 W/m2
21:19 73.0 °F 65.0 °F 30.1 in SE 12 mph 15 mph 76% 0.000 in 0.00 W/m2
21:24 73.0 °F 65.0 °F 30.1 in SE 10 mph 15 mph 76% 0.000 in 0.00 W/m2
21:29 73.0 °F 65.0 °F 30.1 in SE 9 mph 10 mph 76% 0.000 in 0.00 W/m2
21:34 73.0 °F 66.0 °F 30.1 in SE 8 mph 9 mph 77% 0.000 in 0.00 W/m2
21:39 73.0 °F 66.0 °F 30.1 in SE 11 mph 11 mph 77% 0.000 in 0.00 W/m2
21:44 73.0 °F 66.0 °F 30.1 in SE 11 mph 13 mph 78% 0.000 in 0.00 W/m2
21:49 73.0 °F 66.0 °F 30.1 in SE 8 mph 13 mph 78% 0.000 in 0.00 W/m2
21:54 73.0 °F 66.0 °F 30.1 in SE 11 mph 11 mph 78% 0.000 in 0.00 W/m2
21:59 73.0 °F 66.0 °F 30.1 in SE 11 mph 13 mph 78% 0.000 in 0.00 W/m2
22:04 73.0 °F 66.0 °F 30.1 in SE 10 mph 12 mph 79% 0.000 in 0.00 W/m2
22:09 73.0 °F 66.0 °F 30.1 in SE 11 mph 12 mph 79% 0.000 in 0.00 W/m2
22:14 73.0 °F 66.0 °F 30.1 in SE 11 mph 14 mph 79% 0.000 in 0.00 W/m2
22:19 73.0 °F 66.0 °F 30.1 in SE 15 mph 15 mph 79% 0.000 in 0.00 W/m2
22:24 72.0 °F 66.0 °F 30.1 in SE 15 mph 15 mph 79% 0.000 in 0.00 W/m2
22:29 72.0 °F 66.0 °F 30.1 in SE 10 mph 11 mph 79% 0.000 in 0.00 W/m2
22:34 72.0 °F 66.0 °F 30.1 in SE 12 mph 14 mph 79% 0.000 in 0.00 W/m2
22:39 72.0 °F 65.0 °F 30.1 in SE 9 mph 11 mph 79% 0.000 in 0.00 W/m2
22:44 72.0 °F 66.0 °F 30.1 in SE 10 mph 11 mph 80% 0.000 in 0.00 W/m2
22:49 72.0 °F 66.0 °F 30.1 in SE 10 mph 11 mph 80% 0.000 in 0.00 W/m2
22:54 72.0 °F 66.0 °F 30.1 in SE 9 mph 11 mph 80% 0.000 in 0.00 W/m2
22:59 72.0 °F 66.0 °F 30.1 in SE 9 mph 10 mph 80% 0.000 in 0.00 W/m2
23:04 72.0 °F 66.0 °F 30.1 in SE 9 mph 11 mph 80% 0.000 in 0.00 W/m2
23:09 72.0 °F 66.0 °F 30.1 in SE 11 mph 13 mph 80% 0.000 in 0.00 W/m2
23:14 72.0 °F 65.0 °F 30.1 in SE 8 mph 11 mph 80% 0.000 in 0.00 W/m2
23:19 72.0 °F 65.0 °F 30.1 in SSE 9 mph 12 mph 80% 0.000 in 0.00 W/m2
23:24 72.0 °F 65.0 °F 30.1 in SE 13 mph 14 mph 80% 0.000 in 0.00 W/m2
23:29 72.0 °F 65.0 °F 30.1 in SE 12 mph 17 mph 80% 0.000 in 0.00 W/m2
23:34 72.0 °F 66.0 °F 30.1 in SE 12 mph 17 mph 80% 0.000 in 0.00 W/m2
23:39 72.0 °F 66.0 °F 30.1 in SE 15 mph 15 mph 80% 0.000 in 0.00 W/m2
23:44 72.0 °F 66.0 °F 30.1 in SE 15 mph 15 mph 80% 0.000 in 0.00 W/m2
23:49 72.0 °F 66.0 °F 30.1 in SE 9 mph 15 mph 80% 0.000 in 0.00 W/m2
23:54 72.0 °F 66.0 °F 30.1 in SE 13 mph 13 mph 80% 0.000 in 0.00 W/m2
23:59 72.0 °F 66.0 °F 30.1 in SE 11 mph 11 mph 80% 0.000 in 0.00 W/m2
Villages of Bridgestone, Spring, TX USA
Compliments of Weather Underground - 4 mb